createdAt,value
2023-02-19T00:01:48.889Z,6.98
2023-02-19T00:04:18.232Z,6.98
2023-02-19T00:06:46.588Z,6.99
2023-02-19T00:09:19.069Z,6.95
2023-02-19T00:11:47.801Z,6.99
2023-02-19T00:14:18.616Z,6.97
2023-02-19T00:16:46.611Z,6.98
2023-02-19T00:19:16.188Z,6.97
2023-02-19T00:21:43.813Z,6.91
2023-02-19T00:24:13.058Z,6.97
2023-02-19T00:26:43.593Z,6.89
2023-02-19T00:29:14.824Z,6.58
2023-02-19T00:31:43.114Z,6.92
2023-02-19T00:34:11.518Z,6.83
2023-02-19T00:36:40.649Z,6.90
2023-02-19T00:39:09.885Z,6.95
2023-02-19T00:41:37.371Z,6.97
2023-02-19T00:44:08.613Z,7.00
2023-02-19T00:46:37.957Z,6.90
2023-02-19T00:49:06.708Z,7.04
2023-02-19T00:51:36.015Z,6.99
2023-02-19T00:54:04.129Z,7.03
2023-02-19T00:56:31.740Z,7.02
2023-02-19T00:58:59.254Z,7.01
2023-02-19T01:01:28.231Z,7.07
2023-02-19T01:03:55.767Z,7.01
2023-02-19T01:06:23.424Z,7.00
2023-02-19T01:08:51.158Z,6.91
2023-02-19T01:11:20.203Z,6.77
2023-02-19T01:13:47.716Z,6.93
2023-02-19T01:16:18.180Z,6.93
2023-02-19T01:18:47.633Z,6.92
2023-02-19T01:21:16.802Z,6.95
2023-02-19T01:23:44.932Z,6.95
2023-02-19T01:26:15.448Z,6.92
2023-02-19T01:28:43.212Z,6.96
2023-02-19T01:31:15.363Z,6.93
2023-02-19T01:33:47.683Z,6.91
2023-02-19T01:36:15.735Z,6.88
2023-02-19T01:38:43.740Z,6.80
2023-02-19T01:41:13.907Z,6.88
2023-02-19T01:43:59.492Z,6.85
2023-02-19T01:46:28.159Z,6.90
2023-02-19T01:49:00.176Z,6.94
2023-02-19T01:51:28.633Z,6.76
2023-02-19T01:54:00.043Z,6.85
2023-02-19T01:56:29.015Z,6.63
2023-02-19T01:58:57.996Z,6.94
2023-02-19T02:01:25.521Z,6.76
2023-02-19T02:03:53.313Z,6.91
2023-02-19T02:06:24.884Z,6.89
2023-02-19T02:09:11.873Z,6.76
2023-02-19T02:11:41.415Z,6.81
2023-02-19T02:14:08.960Z,6.84
2023-02-19T02:16:45.311Z,6.83
2023-02-19T02:19:32.970Z,6.88
2023-02-19T02:22:08.587Z,6.90
2023-02-19T02:25:07.414Z,6.85
2023-02-19T02:27:48.320Z,6.93
2023-02-19T02:30:32.897Z,6.88
2023-02-19T02:33:12.619Z,6.85
2023-02-19T02:35:45.503Z,6.93
2023-02-19T02:38:15.025Z,6.90
2023-02-19T02:40:45.237Z,6.86
2023-02-19T02:43:13.178Z,6.84
2023-02-19T02:45:42.465Z,6.83
2023-02-19T02:48:20.333Z,6.86
2023-02-19T02:50:53.045Z,6.74
2023-02-19T02:53:41.127Z,6.79
2023-02-19T02:56:11.325Z,6.74
2023-02-19T02:58:39.491Z,6.75
2023-02-19T03:01:30.127Z,6.71
2023-02-19T03:04:03.255Z,6.68
2023-02-19T03:06:34.551Z,6.51
2023-02-19T03:09:10.221Z,6.54
2023-02-19T03:11:58.602Z,6.50
2023-02-19T03:14:50.914Z,6.60
2023-02-19T03:17:42.368Z,6.60
2023-02-19T03:20:14.650Z,6.53
2023-02-19T03:22:45.659Z,6.51
2023-02-19T03:25:34.951Z,6.55
2023-02-19T03:28:04.801Z,6.54
2023-02-19T03:30:35.928Z,6.54
2023-02-19T03:33:10.550Z,6.45
2023-02-19T03:35:42.244Z,6.50
2023-02-19T03:38:18.511Z,6.47
2023-02-19T03:40:55.364Z,6.49
2023-02-19T03:43:28.215Z,6.46
2023-02-19T03:46:04.210Z,6.12
2023-02-19T03:48:35.681Z,6.45
2023-02-19T03:51:18.978Z,6.39
2023-02-19T03:53:54.747Z,6.39
2023-02-19T03:56:29.558Z,6.16
2023-02-19T03:59:01.478Z,6.35
2023-02-19T04:01:33.332Z,6.35
2023-02-19T04:04:08.938Z,6.34
2023-02-19T04:06:38.797Z,6.30
2023-02-19T04:09:12.398Z,6.33
2023-02-19T04:11:40.213Z,6.37
2023-02-19T04:14:11.788Z,6.39
2023-02-19T04:16:42.894Z,6.43
2023-02-19T04:19:15.059Z,6.43
2023-02-19T04:21:44.125Z,6.42
2023-02-19T04:24:17.431Z,6.47
2023-02-19T04:26:46.040Z,6.44
2023-02-19T04:29:13.487Z,6.13
2023-02-19T04:31:41.147Z,6.49
2023-02-19T04:34:08.666Z,6.49
2023-02-19T04:36:37.479Z,6.47
2023-02-19T04:39:05.153Z,6.49
2023-02-19T04:41:32.586Z,6.41
2023-02-19T04:44:00.028Z,6.36
2023-02-19T04:46:27.508Z,6.37
2023-02-19T04:48:55.037Z,6.43
2023-02-19T04:51:22.537Z,6.45
2023-02-19T04:53:51.357Z,6.47
2023-02-19T04:56:19.160Z,6.34
2023-02-19T04:58:46.623Z,6.34
2023-02-19T05:01:14.587Z,6.38
2023-02-19T05:03:42.430Z,6.39
2023-02-19T05:06:11.726Z,6.37
2023-02-19T05:08:39.351Z,6.37
2023-02-19T05:11:11.114Z,6.06
2023-02-19T05:13:38.793Z,6.33
2023-02-19T05:16:08.673Z,6.16
2023-02-19T05:18:36.186Z,6.26
2023-02-19T05:21:03.664Z,6.26
2023-02-19T05:23:31.115Z,6.24
2023-02-19T05:25:58.534Z,6.25
2023-02-19T05:28:29.381Z,6.22
2023-02-19T05:30:57.857Z,6.18
2023-02-19T05:33:26.839Z,6.03
2023-02-19T05:35:56.607Z,6.14
2023-02-19T05:38:25.081Z,6.16
2023-02-19T05:40:52.586Z,6.16
2023-02-19T05:43:19.993Z,6.17
2023-02-19T05:45:48.747Z,6.16
2023-02-19T05:48:16.486Z,6.12
2023-02-19T05:50:43.903Z,6.15
2023-02-19T05:53:11.446Z,6.15
2023-02-19T05:55:38.878Z,6.15
2023-02-19T05:58:06.330Z,6.10
2023-02-19T06:00:34.879Z,6.17
2023-02-19T06:03:03.635Z,6.16
2023-02-19T06:05:31.119Z,6.17
2023-02-19T06:07:58.564Z,6.14
2023-02-19T06:10:25.984Z,6.09
2023-02-19T06:12:54.234Z,6.01
2023-02-19T06:15:21.976Z,6.04
2023-02-19T06:17:49.984Z,5.97
2023-02-19T06:20:19.082Z,6.06
2023-02-19T06:22:46.489Z,6.09
2023-02-19T06:25:13.901Z,6.11
2023-02-19T06:27:41.324Z,6.10
2023-02-19T06:30:10.077Z,6.09
2023-02-19T06:32:37.581Z,6.07
2023-02-19T06:35:05.651Z,6.07
2023-02-19T06:37:34.447Z,6.03
2023-02-19T06:40:01.896Z,6.01
2023-02-19T06:42:32.664Z,6.01
2023-02-19T06:45:00.132Z,6.00
2023-02-19T06:47:27.609Z,5.91
2023-02-19T06:49:55.051Z,5.91
2023-02-19T06:52:22.469Z,5.92
2023-02-19T06:54:51.243Z,5.99
2023-02-19T06:57:19.702Z,6.01
2023-02-19T06:59:47.169Z,5.74
2023-02-19T07:02:14.707Z,6.00
2023-02-19T07:04:42.125Z,6.01
2023-02-19T07:07:12.526Z,5.94
2023-02-19T07:09:39.950Z,6.02
2023-02-19T07:12:09.979Z,6.00
2023-02-19T07:14:37.414Z,6.02
2023-02-19T07:17:04.828Z,6.04
2023-02-19T07:19:32.308Z,6.05
2023-02-19T07:21:59.744Z,6.06
2023-02-19T07:24:27.184Z,6.03
2023-02-19T07:26:54.649Z,6.02
2023-02-19T07:29:23.669Z,6.01
2023-02-19T07:31:51.134Z,6.08
2023-02-19T07:34:18.588Z,6.06
2023-02-19T07:36:46.035Z,6.11
2023-02-19T07:39:15.511Z,6.10
2023-02-19T07:41:42.920Z,6.11
2023-02-19T07:44:13.369Z,6.07
2023-02-19T07:46:42.183Z,6.12
2023-02-19T07:49:09.736Z,6.12
2023-02-19T07:51:39.740Z,6.12
2023-02-19T07:54:07.643Z,6.12
2023-02-19T07:56:35.132Z,6.14
2023-02-19T07:59:02.556Z,6.10
2023-02-19T08:01:43.935Z,6.10
2023-02-19T08:04:14.930Z,6.05
2023-02-19T08:06:42.869Z,6.00
2023-02-19T08:09:10.563Z,5.97
2023-02-19T08:11:55.824Z,5.95
2023-02-19T08:14:25.970Z,5.93
2023-02-19T08:16:54.148Z,5.99
2023-02-19T08:19:23.164Z,5.93
2023-02-19T08:21:50.857Z,6.02
2023-02-19T08:24:18.285Z,6.02
2023-02-19T08:26:45.839Z,5.81
2023-02-19T08:29:13.368Z,6.02
2023-02-19T08:31:40.952Z,6.03
2023-02-19T08:34:08.422Z,6.03
2023-02-19T08:36:37.180Z,6.04
2023-02-19T08:39:04.745Z,6.01
2023-02-19T08:41:32.161Z,6.00
2023-02-19T08:43:59.570Z,6.03
2023-02-19T08:46:27.022Z,6.04
2023-02-19T08:48:54.461Z,5.97
2023-02-19T08:51:21.929Z,6.09
2023-02-19T08:53:50.713Z,6.10
2023-02-19T08:56:18.627Z,6.08
2023-02-19T08:58:46.539Z,5.95
2023-02-19T09:01:16.241Z,6.06
2023-02-19T09:03:44.199Z,6.07
2023-02-19T09:06:15.583Z,6.09
2023-02-19T09:08:43.040Z,6.05
2023-02-19T09:11:12.178Z,6.03
2023-02-19T09:13:39.778Z,6.12
2023-02-19T09:16:07.297Z,6.08
2023-02-19T09:18:35.321Z,6.09
2023-02-19T09:21:04.446Z,6.09
2023-02-19T09:23:33.462Z,6.18
2023-02-19T09:26:03.099Z,6.18
2023-02-19T09:28:31.884Z,6.26
2023-02-19T09:31:04.931Z,6.27
2023-02-19T09:33:32.579Z,6.24
2023-02-19T09:36:00.228Z,6.25
2023-02-19T09:38:27.694Z,6.26
2023-02-19T09:40:55.121Z,6.21
2023-02-19T09:43:27.430Z,6.23
2023-02-19T09:46:23.394Z,6.26
2023-02-19T09:48:51.972Z,6.36
2023-02-19T09:51:19.768Z,6.17
2023-02-19T09:53:51.178Z,6.46
2023-02-19T09:56:18.784Z,6.48
2023-02-19T09:58:49.674Z,6.51
2023-02-19T10:01:19.760Z,6.40
2023-02-19T10:03:49.455Z,6.50
2023-02-19T10:06:21.634Z,6.40
2023-02-19T10:08:50.607Z,6.42
2023-02-19T10:11:18.621Z,6.26
2023-02-19T10:13:49.932Z,6.52
2023-02-19T10:16:22.628Z,6.46
2023-02-19T10:18:50.281Z,6.38
2023-02-19T10:21:21.407Z,6.37
2023-02-19T10:23:52.308Z,6.28
2023-02-19T10:26:20.815Z,6.25
2023-02-19T10:28:48.274Z,6.16
2023-02-19T10:31:20.887Z,6.17
2023-02-19T10:33:51.156Z,6.20
2023-02-19T10:36:29.232Z,6.18
2023-02-19T10:38:58.692Z,6.27
2023-02-19T10:41:28.024Z,6.29
2023-02-19T10:43:59.327Z,6.34
2023-02-19T10:46:30.786Z,6.35
2023-02-19T10:49:00.384Z,6.44
2023-02-19T10:51:34.028Z,6.56
2023-02-19T10:54:07.444Z,6.54
2023-02-19T10:56:35.068Z,6.51
2023-02-19T10:59:23.154Z,6.77
2023-02-19T11:02:00.471Z,6.87
2023-02-19T11:04:29.860Z,7.02
2023-02-19T11:06:58.235Z,7.14
2023-02-19T11:09:29.391Z,7.01
2023-02-19T11:11:59.227Z,6.98
2023-02-19T11:14:28.878Z,6.82
2023-02-19T11:16:59.789Z,6.74
2023-02-19T11:19:37.282Z,6.80
2023-02-19T11:22:20.724Z,6.86
2023-02-19T11:24:50.980Z,6.65
2023-02-19T11:27:21.523Z,6.67
2023-02-19T11:29:49.533Z,6.78
2023-02-19T11:32:30.641Z,7.02
2023-02-19T11:35:19.617Z,7.15
2023-02-19T11:37:58.926Z,7.08
2023-02-19T11:40:38.866Z,6.90
2023-02-19T11:43:19.390Z,6.87
2023-02-19T11:45:53.038Z,6.93
2023-02-19T11:48:32.803Z,6.72
2023-02-19T11:51:21.286Z,6.56
2023-02-19T11:53:55.762Z,6.45
2023-02-19T11:56:33.864Z,6.42
2023-02-19T11:59:04.803Z,6.41
2023-02-19T12:02:07.441Z,6.35
2023-02-19T12:05:01.467Z,6.38
2023-02-19T12:07:54.037Z,6.32
2023-02-19T12:10:29.352Z,6.34
2023-02-19T12:13:09.466Z,6.46
2023-02-19T12:15:53.221Z,6.47
2023-02-19T12:18:54.330Z,6.59
2023-02-19T12:21:35.284Z,6.64
2023-02-19T12:24:21.461Z,6.66
2023-02-19T12:27:00.287Z,6.75
2023-02-19T12:29:52.808Z,6.74
2023-02-19T12:32:41.052Z,6.67
2023-02-19T12:35:47.289Z,6.86
2023-02-19T12:38:23.234Z,6.83
2023-02-19T12:41:13.001Z,6.71
2023-02-19T12:43:45.826Z,6.66
2023-02-19T12:46:17.047Z,6.82
2023-02-19T12:48:52.734Z,6.74
2023-02-19T12:51:24.148Z,6.70
2023-02-19T12:53:56.955Z,6.79
2023-02-19T12:56:29.634Z,6.77
2023-02-19T12:59:02.011Z,6.62
2023-02-19T13:01:41.524Z,6.67
2023-02-19T13:04:21.490Z,6.60
2023-02-19T13:06:54.680Z,6.53
2023-02-19T13:09:30.465Z,6.54
2023-02-19T13:12:02.731Z,6.63
2023-02-19T13:14:35.042Z,6.57
2023-02-19T13:17:20.850Z,6.51
2023-02-19T13:19:51.626Z,6.50
2023-02-19T13:22:44.929Z,6.39
2023-02-19T13:25:16.418Z,6.26
2023-02-19T13:28:19.142Z,6.26
2023-02-19T13:31:19.480Z,6.20
2023-02-19T13:33:59.456Z,6.14
2023-02-19T13:36:28.114Z,6.08
2023-02-19T13:38:58.015Z,6.13
2023-02-19T13:41:32.295Z,6.12
2023-02-19T13:44:03.342Z,6.11
2023-02-19T13:46:37.677Z,6.21
2023-02-19T13:49:44.308Z,6.22
2023-02-19T13:52:42.773Z,6.27
2023-02-19T13:55:51.955Z,6.35
2023-02-19T13:59:01.296Z,6.36
2023-02-19T14:02:05.634Z,6.38
2023-02-19T14:04:50.184Z,6.42
2023-02-19T14:07:52.372Z,6.41
2023-02-19T14:10:57.954Z,6.39
2023-02-19T14:14:09.497Z,6.35
2023-02-19T14:17:07.378Z,6.35
2023-02-19T14:19:50.084Z,6.29
2023-02-19T14:23:03.357Z,6.31
2023-02-19T14:25:53.341Z,6.28
2023-02-19T14:28:29.854Z,6.23
2023-02-19T14:31:00.828Z,6.20
2023-02-19T14:33:30.628Z,6.22
2023-02-19T14:36:05.617Z,6.12
2023-02-19T14:38:37.953Z,6.04
2023-02-19T14:41:07.144Z,5.98
2023-02-19T14:43:36.082Z,5.97
2023-02-19T14:46:08.910Z,5.99
2023-02-19T14:48:40.061Z,5.99
2023-02-19T14:51:15.526Z,6.01
2023-02-19T14:53:46.284Z,5.94
2023-02-19T14:56:21.936Z,5.93
2023-02-19T14:59:06.733Z,5.94
2023-02-19T15:01:34.187Z,5.92
2023-02-19T15:04:03.545Z,5.93
2023-02-19T15:06:33.285Z,5.94
2023-02-19T15:09:05.980Z,5.95
2023-02-19T15:11:35.812Z,5.99
2023-02-19T15:14:05.971Z,6.01
2023-02-19T15:16:36.944Z,6.01
2023-02-19T15:19:07.409Z,5.98
2023-02-19T15:21:40.177Z,5.99
2023-02-19T15:24:08.254Z,6.01
2023-02-19T15:26:38.284Z,5.94
2023-02-19T15:29:11.653Z,5.91
2023-02-19T15:31:45.879Z,5.89
2023-02-19T15:34:17.697Z,5.86
2023-02-19T15:36:47.542Z,5.77
2023-02-19T15:39:20.706Z,5.69
2023-02-19T15:41:54.436Z,5.57
2023-02-19T15:44:35.329Z,5.60
2023-02-19T15:47:10.418Z,5.54
2023-02-19T15:49:44.918Z,5.48
2023-02-19T15:52:22.585Z,5.50
2023-02-19T15:54:56.157Z,5.38
2023-02-19T15:57:27.193Z,5.49
2023-02-19T16:00:01.997Z,5.52
2023-02-19T16:02:29.976Z,5.52
2023-02-19T16:04:58.208Z,5.40
2023-02-19T16:07:28.882Z,5.47
2023-02-19T16:10:20.780Z,5.50
2023-02-19T16:12:58.907Z,5.45
2023-02-19T16:15:27.604Z,5.29
2023-02-19T16:17:55.798Z,5.51
2023-02-19T16:20:27.525Z,5.51
2023-02-19T16:23:02.362Z,5.48
2023-02-19T16:25:37.462Z,5.53
2023-02-19T16:28:12.994Z,5.57
2023-02-19T16:30:40.897Z,5.58
2023-02-19T16:33:22.811Z,5.58
2023-02-19T16:35:52.177Z,5.58
2023-02-19T16:38:21.674Z,5.51
2023-02-19T16:41:13.669Z,5.60
2023-02-19T16:43:43.007Z,5.59
2023-02-19T16:46:12.842Z,5.56
2023-02-19T16:48:40.506Z,5.44
2023-02-19T16:51:09.032Z,5.51
2023-02-19T16:53:37.906Z,5.41
2023-02-19T16:56:05.860Z,5.25
2023-02-19T16:58:33.257Z,5.39
2023-02-19T17:01:01.602Z,5.34
2023-02-19T17:03:29.106Z,5.35
2023-02-19T17:05:57.379Z,5.10
2023-02-19T17:08:33.787Z,5.25
2023-02-19T17:11:04.412Z,5.24
2023-02-19T17:13:31.894Z,5.26
2023-02-19T17:15:59.979Z,5.26
2023-02-19T17:18:27.981Z,5.26
2023-02-19T17:21:00.340Z,5.25
2023-02-19T17:23:27.747Z,5.26
2023-02-19T17:25:55.208Z,5.30
2023-02-19T17:28:23.973Z,5.24
2023-02-19T17:30:51.389Z,5.28
2023-02-19T17:33:18.814Z,5.30
2023-02-19T17:35:46.252Z,5.30
2023-02-19T17:38:14.308Z,5.22
2023-02-19T17:40:42.053Z,5.05
2023-02-19T17:43:09.476Z,5.23
2023-02-19T17:45:38.239Z,5.21
2023-02-19T17:48:06.512Z,5.15
2023-02-19T17:50:33.983Z,5.11
2023-02-19T17:53:01.426Z,5.13
2023-02-19T17:55:28.907Z,5.14
2023-02-19T17:57:56.447Z,5.10
2023-02-19T18:00:26.233Z,5.12
2023-02-19T18:02:55.643Z,5.17
2023-02-19T18:05:23.991Z,5.12
2023-02-19T18:07:51.659Z,5.11
2023-02-19T18:10:20.682Z,5.06
2023-02-19T18:12:48.350Z,5.07
2023-02-19T18:15:18.329Z,5.04
2023-02-19T18:17:45.939Z,5.04
2023-02-19T18:20:16.750Z,4.98
2023-02-19T18:22:44.185Z,5.07
2023-02-19T18:25:12.016Z,5.05
2023-02-19T18:27:39.573Z,5.02
2023-02-19T18:30:08.428Z,5.06
2023-02-19T18:32:36.016Z,5.05
2023-02-19T18:35:03.990Z,4.95
2023-02-19T18:37:33.773Z,5.02
2023-02-19T18:40:02.369Z,4.98
2023-02-19T18:42:30.036Z,5.03
2023-02-19T18:44:57.572Z,4.88
2023-02-19T18:47:26.692Z,4.97
2023-02-19T18:49:56.860Z,4.87
2023-02-19T18:52:26.073Z,4.92
2023-02-19T18:54:57.193Z,4.93
2023-02-19T18:57:26.026Z,4.93
2023-02-19T18:59:53.775Z,4.85
2023-02-19T19:02:21.678Z,4.88
2023-02-19T19:04:54.516Z,4.58
2023-02-19T19:07:22.606Z,4.72
2023-02-19T19:09:52.294Z,4.43
2023-02-19T19:12:21.615Z,4.56
2023-02-19T19:14:50.473Z,4.75
2023-02-19T19:17:18.020Z,4.75
2023-02-19T19:19:48.118Z,4.57
2023-02-19T19:22:22.636Z,4.30
2023-02-19T19:24:50.323Z,4.71
2023-02-19T19:27:19.363Z,4.57
2023-02-19T19:29:49.642Z,4.60
2023-02-19T19:32:17.527Z,4.63
2023-02-19T19:34:45.796Z,4.37
2023-02-19T19:37:13.370Z,4.65
2023-02-19T19:39:42.931Z,4.44
2023-02-19T19:42:14.561Z,4.71
2023-02-19T19:44:44.381Z,4.64
2023-02-19T19:47:13.411Z,4.68
2023-02-19T19:49:44.366Z,4.63
2023-02-19T19:52:12.063Z,4.56
2023-02-19T19:54:43.441Z,4.55
2023-02-19T19:57:12.975Z,4.49
2023-02-19T19:59:40.965Z,4.64
2023-02-19T20:02:13.313Z,4.39
2023-02-19T20:04:44.934Z,4.59
2023-02-19T20:07:12.733Z,4.43
2023-02-19T20:09:40.393Z,4.30
2023-02-19T20:12:08.634Z,4.56
2023-02-19T20:14:41.847Z,4.14
2023-02-19T20:17:13.095Z,4.42
2023-02-19T20:19:40.912Z,4.38
2023-02-19T20:22:08.576Z,4.31
2023-02-19T20:24:36.242Z,4.24
2023-02-19T20:27:08.545Z,4.28
2023-02-19T20:29:40.077Z,4.25
2023-02-19T20:32:09.091Z,4.24
2023-02-19T20:34:39.830Z,4.02
2023-02-19T20:37:08.398Z,3.91
2023-02-19T20:39:39.384Z,4.16
2023-02-19T20:42:08.970Z,4.29
2023-02-19T20:44:36.669Z,4.28
2023-02-19T20:47:04.877Z,4.06
2023-02-19T20:49:34.465Z,4.26
2023-02-19T20:52:07.249Z,4.28
2023-02-19T20:54:36.271Z,4.27
2023-02-19T20:57:05.478Z,4.24
2023-02-19T20:59:35.728Z,4.19
2023-02-19T21:02:05.176Z,4.08
2023-02-19T21:04:34.599Z,3.97
2023-02-19T21:07:03.683Z,3.76
2023-02-19T21:09:32.079Z,4.03
2023-02-19T21:11:59.962Z,3.76
2023-02-19T21:14:27.815Z,4.06
2023-02-19T21:16:55.495Z,4.10
2023-02-19T21:19:23.478Z,4.12
2023-02-19T21:21:53.268Z,4.08
2023-02-19T21:24:22.295Z,4.10
2023-02-19T21:26:50.169Z,3.80
2023-02-19T21:29:19.581Z,3.83
2023-02-19T21:31:50.353Z,3.88
2023-02-19T21:34:20.643Z,3.77
2023-02-19T21:36:48.221Z,3.74
2023-02-19T21:39:18.173Z,3.71
2023-02-19T21:41:47.192Z,3.56
2023-02-19T21:44:14.734Z,3.53
2023-02-19T21:46:42.614Z,3.29
2023-02-19T21:49:10.730Z,3.50
2023-02-19T21:51:41.002Z,3.52
2023-02-19T21:54:09.872Z,3.32
2023-02-19T21:56:38.044Z,3.30
2023-02-19T21:59:06.926Z,3.26
2023-02-19T22:01:38.482Z,3.20
2023-02-19T22:04:06.283Z,3.20
2023-02-19T22:06:34.119Z,3.09
2023-02-19T22:09:02.572Z,3.20
2023-02-19T22:11:30.050Z,3.17
2023-02-19T22:13:57.554Z,2.99
2023-02-19T22:16:26.829Z,2.99
2023-02-19T22:18:56.636Z,2.98
2023-02-19T22:21:26.081Z,2.97
2023-02-19T22:23:54.854Z,2.95
2023-02-19T22:26:25.063Z,2.76
2023-02-19T22:28:53.274Z,2.76
2023-02-19T22:31:23.531Z,2.66
2023-02-19T22:33:52.693Z,2.59
2023-02-19T22:36:21.861Z,2.71
2023-02-19T22:38:49.825Z,2.71
2023-02-19T22:41:18.614Z,2.70
2023-02-19T22:43:46.552Z,2.63
2023-02-19T22:46:17.297Z,2.60
2023-02-19T22:48:44.796Z,2.53
2023-02-19T22:51:15.598Z,2.54
2023-02-19T22:53:46.350Z,2.60
2023-02-19T22:56:15.927Z,2.47
2023-02-19T22:58:43.666Z,2.55
2023-02-19T23:01:11.907Z,2.51
2023-02-19T23:03:46.543Z,2.47
2023-02-19T23:06:15.946Z,2.24
2023-02-19T23:08:43.901Z,2.31
2023-02-19T23:11:12.059Z,2.21
2023-02-19T23:13:41.798Z,2.24
2023-02-19T23:16:09.565Z,2.28
2023-02-19T23:18:37.203Z,2.20
2023-02-19T23:21:04.836Z,2.08
2023-02-19T23:23:33.703Z,2.10
2023-02-19T23:26:01.210Z,2.11
2023-02-19T23:28:28.665Z,1.94
2023-02-19T23:30:56.238Z,2.13
2023-02-19T23:33:23.821Z,2.16
2023-02-19T23:35:51.302Z,2.21
2023-02-19T23:38:18.956Z,2.14
2023-02-19T23:40:47.741Z,2.06
2023-02-19T23:43:15.227Z,2.30
2023-02-19T23:45:42.769Z,2.34
2023-02-19T23:48:10.510Z,2.31
2023-02-19T23:50:37.982Z,2.37
2023-02-19T23:53:06.054Z,2.35
2023-02-19T23:55:33.490Z,2.16
2023-02-19T23:58:02.348Z,2.39
